Time;durP1;ratioP1;P1;durP2;ratioP2;P2;SDS_P1;SDS_P2;PMS_P1;PMS_P2;Temp;Humidity;BMP_temperature;BMP_pressure;BME280_temperature;BME280_humidity;BME280_pressure;Samples;Min_cycle;Max_cycle;Signal;HPM_P1;HPM_P2
2023/02/17 00:01:21;;;;;;;32.00;23.85;;;10.20;99.90;;;;;;5039836;28;20534;-74
2023/02/17 00:03:49;;;;;;;28.23;21.63;;;10.20;99.90;;;;;;5049576;28;20024;-73
2023/02/17 00:06:17;;;;;;;25.20;20.65;;;10.20;99.90;;;;;;5067603;28;20493;-72
2023/02/17 00:08:45;;;;;;;27.00;20.58;;;10.20;99.90;;;;;;5046336;28;20017;-73
2023/02/17 00:11:12;;;;;;;36.22;25.05;;;10.20;99.90;;;;;;5060557;28;20612;-75
2023/02/17 00:13:38;;;;;;;30.10;22.08;;;10.20;99.90;;;;;;5068084;28;20032;-73
2023/02/17 00:16:23;;;;;;;28.67;21.30;;;10.20;99.90;;;;;;5047956;28;20103;-77
2023/02/17 00:18:58;;;;;;;30.02;23.33;;;10.20;99.90;;;;;;5053661;28;21418;-76
2023/02/17 00:21:30;;;;;;;32.28;23.85;;;10.20;99.90;;;;;;5059439;28;20040;-72
2023/02/17 00:23:58;;;;;;;28.40;20.70;;;10.20;99.90;;;;;;5064538;28;20047;-76
2023/02/17 00:26:24;;;;;;;33.72;23.25;;;10.20;99.90;;;;;;5066675;28;20759;-75
2023/02/17 00:28:51;;;;;;;33.45;23.73;;;10.20;99.90;;;;;;5064773;28;20752;-73
2023/02/17 00:31:19;;;;;;;30.10;22.25;;;10.20;99.90;;;;;;5036959;28;20028;-75
2023/02/17 00:33:46;;;;;;;30.05;21.80;;;10.20;99.90;;;;;;5044094;28;20040;-74
2023/02/17 00:36:16;;;;;;;28.33;20.85;;;10.20;99.90;;;;;;5052994;28;20384;-76
2023/02/17 00:38:43;;;;;;;29.17;21.02;;;10.20;99.90;;;;;;5032212;28;20047;-74
2023/02/17 00:41:10;;;;;;;31.40;23.08;;;10.20;99.90;;;;;;5027126;28;20055;-73
2023/02/17 00:43:36;;;;;;;26.63;20.38;;;10.20;99.90;;;;;;5043070;28;20039;-75
2023/02/17 00:46:05;;;;;;;26.40;18.63;;;10.20;99.90;;;;;;5064511;28;20451;-72
2023/02/17 00:48:31;;;;;;;28.02;20.52;;;10.20;99.90;;;;;;5043889;28;20039;-75
2023/02/17 00:50:58;;;;;;;32.67;22.55;;;10.20;99.90;;;;;;5038550;28;20047;-73
2023/02/17 00:53:26;;;;;;;24.88;18.33;;;10.30;99.90;;;;;;5045287;28;20029;-73
2023/02/17 00:55:52;;;;;;;22.92;17.58;;;10.30;99.90;;;;;;5047369;28;20043;-72
2023/02/17 00:58:19;;;;;;;19.88;15.05;;;10.20;99.90;;;;;;5039986;28;20066;-76
2023/02/17 01:00:45;;;;;;;20.33;16.15;;;10.30;99.90;;;;;;5033019;28;20051;-72
2023/02/17 01:03:11;;;;;;;18.88;14.88;;;10.30;99.90;;;;;;5035137;28;20040;-73
2023/02/17 01:05:43;;;;;;;19.95;15.32;;;10.30;99.90;;;;;;5045371;28;20039;-73
2023/02/17 01:08:10;;;;;;;20.23;16.27;;;10.30;99.90;;;;;;5068734;28;20037;-74
2023/02/17 01:10:40;;;;;;;19.35;14.88;;;10.30;99.90;;;;;;5026335;28;20044;-74
2023/02/17 01:13:07;;;;;;;18.13;14.82;;;10.30;99.90;;;;;;5063545;28;20036;-76
2023/02/17 01:15:48;;;;;;;17.15;14.40;;;10.20;99.90;;;;;;5038113;28;20610;-76
2023/02/17 01:18:16;;;;;;;21.67;17.20;;;10.30;99.90;;;;;;5069199;28;20029;-73
2023/02/17 01:20:43;;;;;;;18.42;14.80;;;10.20;99.90;;;;;;5046209;28;20040;-73
2023/02/17 01:23:10;;;;;;;20.17;16.00;;;10.30;99.90;;;;;;5048536;28;20470;-74
2023/02/17 01:25:39;;;;;;;21.50;17.02;;;10.30;99.90;;;;;;5051980;28;20033;-73
2023/02/17 01:28:06;;;;;;;18.90;15.73;;;10.20;99.90;;;;;;5065863;28;20028;-73
2023/02/17 01:30:33;;;;;;;22.42;17.38;;;10.30;99.90;;;;;;5013522;28;20044;-74
2023/02/17 01:33:00;;;;;;;21.98;17.08;;;10.30;99.90;;;;;;5046412;28;20032;-72
2023/02/17 01:35:26;;;;;;;21.35;17.13;;;10.30;99.90;;;;;;5026139;28;20477;-73
2023/02/17 01:37:52;;;;;;;20.48;17.35;;;10.30;99.90;;;;;;5034955;28;20040;-73
2023/02/17 01:40:18;;;;;;;24.83;20.15;;;10.30;99.90;;;;;;5042004;28;20067;-73
2023/02/17 01:42:45;;;;;;;24.42;20.10;;;10.30;99.90;;;;;;5041384;28;20041;-73
2023/02/17 01:45:17;;;;;;;20.27;17.13;;;10.20;99.90;;;;;;5044838;28;20040;-73
2023/02/17 01:47:54;;;;;;;19.08;16.98;;;10.30;99.90;;;;;;5023954;28;20349;-71
2023/02/17 01:50:25;;;;;;;23.40;19.52;;;10.30;99.90;;;;;;5041842;28;20582;-73
2023/02/17 01:52:53;;;;;;;21.50;17.90;;;10.30;99.90;;;;;;5043810;28;20033;-74
2023/02/17 01:55:22;;;;;;;20.00;16.08;;;10.30;99.90;;;;;;5020117;28;20040;-73
2023/02/17 01:57:50;;;;;;;21.92;17.65;;;10.30;99.90;;;;;;5066728;28;20040;-72
2023/02/17 02:00:19;;;;;;;26.48;21.45;;;10.30;99.90;;;;;;5043294;28;20043;-74
2023/02/17 02:02:49;;;;;;;28.13;21.55;;;10.30;99.90;;;;;;5048030;28;20048;-74
2023/02/17 02:05:17;;;;;;;28.75;21.60;;;10.30;99.90;;;;;;5045661;28;20394;-72
2023/02/17 02:07:46;;;;;;;27.48;21.42;;;10.30;99.90;;;;;;5051342;28;20379;-72
2023/02/17 02:10:16;;;;;;;25.73;19.38;;;10.30;99.90;;;;;;5042636;28;20610;-77
2023/02/17 02:12:43;;;;;;;27.60;21.75;;;10.30;99.90;;;;;;5038186;28;20044;-74
2023/02/17 02:15:39;;;;;;;28.63;21.48;;;10.30;99.90;;;;;;5033354;28;20039;-72
2023/02/17 02:18:18;;;;;;;29.23;21.35;;;10.30;99.90;;;;;;5062774;28;20041;-73
2023/02/17 02:21:31;;;;;;;30.27;21.58;;;10.30;99.90;;;;;;5055160;28;20048;-74
2023/02/17 02:24:14;;;;;;;32.33;21.83;;;10.30;99.90;;;;;;5044303;28;20162;-72
2023/02/17 02:26:59;;;;;;;30.77;20.67;;;10.30;99.90;;;;;;5035553;28;20375;-72
2023/02/17 02:29:57;;;;;;;29.83;19.80;;;10.30;99.90;;;;;;5059394;28;20032;-77
2023/02/17 02:33:01;;;;;;;38.38;24.23;;;10.30;99.90;;;;;;4997943;28;20039;-73
2023/02/17 02:35:49;;;;;;;40.55;25.70;;;10.30;99.90;;;;;;5044560;28;20039;-74
2023/02/17 02:38:31;;;;;;;32.75;21.48;;;10.30;99.90;;;;;;5045267;28;20032;-76
2023/02/17 02:41:05;;;;;;;35.97;23.58;;;10.30;99.90;;;;;;5025890;28;20041;-73
2023/02/17 02:43:32;;;;;;;33.97;22.15;;;10.30;99.90;;;;;;5025409;28;20300;-75
2023/02/17 02:45:58;;;;;;;38.00;25.77;;;10.20;99.90;;;;;;5035291;28;20056;-73
2023/02/17 02:48:25;;;;;;;36.95;24.83;;;10.20;99.90;;;;;;5047499;28;20043;-73
2023/02/17 02:51:16;;;;;;;34.20;22.58;;;10.20;99.90;;;;;;5030178;28;20040;-73
2023/02/17 02:54:05;;;;;;;35.50;23.70;;;10.30;99.90;;;;;;5063065;28;20028;-72
2023/02/17 02:56:57;;;;;;;37.17;22.58;;;10.30;99.90;;;;;;5037493;28;20036;-73
2023/02/17 02:59:24;;;;;;;36.63;24.02;;;10.20;99.90;;;;;;5018009;28;20094;-72
2023/02/17 03:02:04;;;;;;;34.30;23.38;;;10.20;99.90;;;;;;5029712;28;20535;-74
2023/02/17 03:04:38;;;;;;;39.08;24.52;;;10.20;99.90;;;;;;5025073;28;20483;-72
2023/02/17 03:07:21;;;;;;;34.83;22.10;;;10.20;99.90;;;;;;5048792;28;20562;-75
2023/02/17 03:09:53;;;;;;;34.90;21.92;;;10.20;99.90;;;;;;5047528;28;20387;-72
2023/02/17 03:12:21;;;;;;;36.97;24.67;;;10.20;99.90;;;;;;5015020;28;20076;-73
2023/02/17 03:14:51;;;;;;;35.60;21.23;;;10.20;99.90;;;;;;5036000;28;20044;-73
2023/02/17 03:17:17;;;;;;;32.47;20.67;;;10.20;99.90;;;;;;5055107;28;20063;-75
2023/02/17 03:19:48;;;;;;;33.80;21.80;;;10.20;99.90;;;;;;5066508;28;20059;-76
2023/02/17 03:22:32;;;;;;;34.97;21.40;;;10.20;99.90;;;;;;5038089;28;20063;-72
2023/02/17 03:25:00;;;;;;;31.95;21.58;;;10.20;99.90;;;;;;5054516;28;20045;-72
2023/02/17 03:27:27;;;;;;;34.65;24.02;;;10.20;99.90;;;;;;5037688;28;20039;-72
2023/02/17 03:29:53;;;;;;;33.35;22.95;;;10.20;99.90;;;;;;5052801;28;20031;-73
2023/02/17 03:32:20;;;;;;;27.80;18.83;;;10.20;99.90;;;;;;5023507;28;20040;-72
2023/02/17 03:34:46;;;;;;;27.20;19.45;;;10.20;99.90;;;;;;5048729;28;20036;-73
2023/02/17 03:37:13;;;;;;;29.20;20.98;;;10.20;99.90;;;;;;5049164;28;20032;-72
2023/02/17 03:39:39;;;;;;;25.88;18.42;;;10.20;99.90;;;;;;5051152;28;20055;-73
2023/02/17 03:42:05;;;;;;;29.70;20.17;;;10.20;99.90;;;;;;5057418;28;20050;-72
2023/02/17 03:44:32;;;;;;;27.48;18.83;;;10.20;99.90;;;;;;5066778;28;20052;-72
2023/02/17 03:46:58;;;;;;;28.15;20.08;;;10.20;99.90;;;;;;5047234;28;20032;-73
2023/02/17 03:49:24;;;;;;;27.40;19.00;;;10.20;99.90;;;;;;5056019;28;20677;-76
2023/02/17 03:51:50;;;;;;;26.05;19.02;;;10.20;99.90;;;;;;5041317;28;20043;-76
2023/02/17 03:54:17;;;;;;;26.75;17.98;;;10.20;99.90;;;;;;5066607;28;20039;-74
2023/02/17 03:56:43;;;;;;;22.05;16.30;;;10.10;99.90;;;;;;5064584;28;20411;-75
2023/02/17 03:59:09;;;;;;;22.55;16.17;;;10.20;99.90;;;;;;5051858;28;20044;-74
2023/02/17 04:01:36;;;;;;;22.55;16.23;;;10.20;99.90;;;;;;5056952;28;20040;-73
2023/02/17 04:04:02;;;;;;;24.63;17.88;;;10.20;99.90;;;;;;5053700;28;20019;-74
2023/02/17 04:06:28;;;;;;;23.60;17.40;;;10.20;99.90;;;;;;5065605;28;20046;-74
2023/02/17 04:08:55;;;;;;;20.88;15.68;;;10.10;99.90;;;;;;5066978;28;20044;-75
2023/02/17 04:11:21;;;;;;;21.73;16.25;;;10.20;99.90;;;;;;5039841;28;20043;-72
2023/02/17 04:13:47;;;;;;;21.17;14.52;;;10.10;99.90;;;;;;5070279;28;20044;-76
2023/02/17 04:16:14;;;;;;;20.88;14.02;;;10.10;99.90;;;;;;5065725;28;20036;-75
2023/02/17 04:18:40;;;;;;;23.30;14.52;;;10.20;99.90;;;;;;5065922;28;20600;-73
2023/02/17 04:21:06;;;;;;;22.50;15.93;;;10.20;99.90;;;;;;5056318;28;20043;-74
2023/02/17 04:23:35;;;;;;;19.58;14.82;;;10.20;99.90;;;;;;5066025;28;20032;-74
2023/02/17 04:26:02;;;;;;;20.95;15.52;;;10.20;99.90;;;;;;5035933;28;20055;-77
2023/02/17 04:28:29;;;;;;;23.60;14.75;;;10.10;99.90;;;;;;5053228;28;20040;-74
2023/02/17 04:30:57;;;;;;;25.20;17.42;;;10.20;99.90;;;;;;5037596;28;20040;-75
2023/02/17 04:33:23;;;;;;;19.85;14.35;;;10.20;99.90;;;;;;5065131;28;20046;-73
2023/02/17 04:35:50;;;;;;;24.80;16.15;;;10.20;99.90;;;;;;5045403;28;20049;-75
2023/02/17 04:38:16;;;;;;;22.75;15.35;;;10.20;99.90;;;;;;5047130;28;20028;-74
2023/02/17 04:40:42;;;;;;;22.73;15.23;;;10.20;99.90;;;;;;5057482;28;20040;-74
2023/02/17 04:43:09;;;;;;;23.30;15.90;;;10.20;99.90;;;;;;5063896;28;20036;-77
2023/02/17 04:45:36;;;;;;;28.63;17.38;;;10.20;99.90;;;;;;5053077;28;20190;-74
2023/02/17 04:48:03;;;;;;;23.10;15.88;;;10.20;99.90;;;;;;5047319;28;20036;-75
2023/02/17 04:50:29;;;;;;;19.50;15.30;;;10.20;99.90;;;;;;5039913;28;20040;-73
2023/02/17 04:52:55;;;;;;;26.63;18.42;;;10.20;99.90;;;;;;5061384;28;20036;-77
2023/02/17 04:55:21;;;;;;;22.13;15.68;;;10.20;99.90;;;;;;5069793;28;20040;-75
2023/02/17 04:57:48;;;;;;;25.60;18.63;;;10.20;99.90;;;;;;5036038;28;20044;-74
2023/02/17 05:00:14;;;;;;;25.10;19.45;;;10.20;99.90;;;;;;5042034;28;20066;-74
2023/02/17 05:02:40;;;;;;;27.77;20.92;;;10.20;99.90;;;;;;5026137;28;20045;-74
2023/02/17 05:05:07;;;;;;;25.50;20.45;;;10.20;99.90;;;;;;5050774;28;20040;-75
2023/02/17 05:07:33;;;;;;;27.33;21.15;;;10.20;99.90;;;;;;5064225;28;20039;-74
2023/02/17 05:10:00;;;;;;;30.60;22.15;;;10.20;99.90;;;;;;5045414;28;20040;-76
2023/02/17 05:12:26;;;;;;;27.30;20.65;;;10.20;99.90;;;;;;5028943;28;20032;-74
2023/02/17 05:14:52;;;;;;;32.47;24.40;;;10.20;99.90;;;;;;5046017;28;20723;-75
2023/02/17 05:17:18;;;;;;;28.67;20.85;;;10.20;99.90;;;;;;5064867;28;20036;-77
2023/02/17 05:19:45;;;;;;;32.25;24.70;;;10.20;99.90;;;;;;5045795;28;20036;-74
2023/02/17 05:22:11;;;;;;;28.80;20.98;;;10.20;99.90;;;;;;5053874;28;20431;-73
2023/02/17 05:24:37;;;;;;;36.25;26.05;;;10.20;99.90;;;;;;5045434;28;20036;-77
2023/02/17 05:27:03;;;;;;;37.15;25.48;;;10.10;99.90;;;;;;5061709;28;20043;-75
2023/02/17 05:29:30;;;;;;;29.63;23.15;;;10.10;99.90;;;;;;5045040;28;20533;-73
2023/02/17 05:31:56;;;;;;;33.42;24.60;;;10.10;99.90;;;;;;5054100;28;20437;-74
2023/02/17 05:34:22;;;;;;;40.45;26.23;;;10.10;99.90;;;;;;5043503;28;20505;-74
2023/02/17 05:36:48;;;;;;;33.70;22.77;;;10.10;99.90;;;;;;5062569;28;20025;-74
2023/02/17 05:39:15;;;;;;;38.53;26.85;;;10.10;99.90;;;;;;5065218;28;20040;-73
2023/02/17 05:41:41;;;;;;;34.83;24.85;;;10.10;99.90;;;;;;5054189;28;20044;-73
2023/02/17 05:44:07;;;;;;;38.83;27.83;;;10.10;99.90;;;;;;5045966;28;20059;-75
2023/02/17 05:46:34;;;;;;;44.15;27.60;;;10.10;99.90;;;;;;5046542;28;20044;-73
2023/02/17 05:49:00;;;;;;;33.13;24.25;;;10.00;99.90;;;;;;5047063;28;20467;-73
2023/02/17 05:51:27;;;;;;;34.35;24.50;;;10.10;99.90;;;;;;5054451;28;20040;-73
2023/02/17 05:53:53;;;;;;;36.25;23.73;;;10.10;99.90;;;;;;5047522;28;20495;-73
2023/02/17 05:56:20;;;;;;;35.10;24.65;;;10.10;99.90;;;;;;5064765;28;20043;-76
2023/02/17 05:58:46;;;;;;;32.75;22.88;;;10.10;99.90;;;;;;5064214;28;20036;-75
2023/02/17 06:01:12;;;;;;;32.50;23.67;;;10.10;99.90;;;;;;5034685;28;20478;-75
2023/02/17 06:03:39;;;;;;;30.73;23.20;;;10.10;99.90;;;;;;5063012;28;20036;-73
2023/02/17 06:06:06;;;;;;;33.47;24.23;;;10.10;99.90;;;;;;5044007;28;20020;-72
2023/02/17 06:08:33;;;;;;;34.55;22.92;;;10.10;99.90;;;;;;5044505;28;20055;-75
2023/02/17 06:10:59;;;;;;;35.65;24.42;;;10.10;99.90;;;;;;5034609;28;21374;-72
2023/02/17 06:13:26;;;;;;;34.45;25.73;;;10.10;99.90;;;;;;5063199;28;20036;-74
2023/02/17 06:15:52;;;;;;;32.35;23.95;;;10.10;99.90;;;;;;5033133;28;20118;-74
2023/02/17 06:18:18;;;;;;;35.45;25.08;;;10.10;99.90;;;;;;5047134;28;20032;-71
2023/02/17 06:20:45;;;;;;;36.63;27.17;;;10.10;99.90;;;;;;5006253;28;20043;-73
2023/02/17 06:23:11;;;;;;;37.42;25.23;;;10.10;99.90;;;;;;5032786;28;20036;-75
2023/02/17 06:25:37;;;;;;;34.47;23.55;;;10.10;99.90;;;;;;5062460;28;20032;-74
2023/02/17 06:28:04;;;;;;;33.15;24.30;;;10.10;99.90;;;;;;5045227;28;20395;-75
2023/02/17 06:30:31;;;;;;;28.17;20.25;;;10.10;99.90;;;;;;5041252;28;20032;-74
2023/02/17 06:32:58;;;;;;;33.20;22.80;;;10.10;99.90;;;;;;5040174;28;20407;-73
2023/02/17 06:35:24;;;;;;;28.73;20.60;;;10.10;99.90;;;;;;5065123;28;20741;-74
2023/02/17 06:37:51;;;;;;;25.33;20.52;;;10.10;99.90;;;;;;5061562;28;20039;-72
2023/02/17 06:40:18;;;;;;;34.25;24.92;;;10.10;99.90;;;;;;5041394;28;20039;-75
2023/02/17 06:42:44;;;;;;;29.75;22.20;;;10.10;99.90;;;;;;5056813;28;20039;-72
2023/02/17 06:45:10;;;;;;;34.13;24.13;;;10.10;99.90;;;;;;5042438;28;20483;-73
2023/02/17 06:47:37;;;;;;;32.28;22.70;;;10.10;99.90;;;;;;5038750;28;20040;-76
2023/02/17 06:50:04;;;;;;;30.05;23.05;;;10.20;99.90;;;;;;5059804;28;20028;-76
2023/02/17 06:52:30;;;;;;;32.78;24.02;;;10.20;99.90;;;;;;5051303;28;20048;-73
2023/02/17 06:54:56;;;;;;;34.97;24.40;;;10.20;99.90;;;;;;5014697;28;20399;-74
2023/02/17 06:57:23;;;;;;;27.73;19.75;;;10.20;99.90;;;;;;5044511;28;20047;-75
2023/02/17 06:59:49;;;;;;;36.35;24.25;;;10.20;99.90;;;;;;5027016;28;20036;-73
2023/02/17 07:02:15;;;;;;;28.90;20.50;;;10.20;99.90;;;;;;5051563;28;20040;-74
2023/02/17 07:04:42;;;;;;;29.98;22.80;;;10.20;99.90;;;;;;5043212;28;20039;-74
2023/02/17 07:07:09;;;;;;;28.77;18.95;;;10.20;99.90;;;;;;5046611;28;20085;-74
2023/02/17 07:09:37;;;;;;;24.15;18.90;;;10.20;99.90;;;;;;5031975;28;20040;-74
2023/02/17 07:12:04;;;;;;;27.65;20.60;;;10.30;99.90;;;;;;5021551;28;20404;-73
2023/02/17 07:14:32;;;;;;;30.52;19.95;;;10.30;99.90;;;;;;5045204;28;20467;-74
2023/02/17 07:16:59;;;;;;;28.63;21.52;;;10.30;99.90;;;;;;5044007;28;20036;-73
2023/02/17 07:19:25;;;;;;;27.58;19.65;;;10.30;99.90;;;;;;5040146;28;20033;-73
2023/02/17 07:21:52;;;;;;;29.70;21.27;;;10.30;99.90;;;;;;5049901;28;20558;-74
2023/02/17 07:24:18;;;;;;;31.60;22.10;;;10.30;99.90;;;;;;5062386;28;20040;-75
2023/02/17 07:26:44;;;;;;;30.55;21.80;;;10.30;99.90;;;;;;5029325;28;22120;-74
2023/02/17 07:29:11;;;;;;;32.97;24.58;;;10.40;99.90;;;;;;5057569;28;20043;-73
2023/02/17 07:31:38;;;;;;;28.27;20.02;;;10.30;99.90;;;;;;5061559;28;20043;-74
2023/02/17 07:34:04;;;;;;;28.00;20.13;;;10.40;99.90;;;;;;5060713;28;20035;-78
2023/02/17 07:36:31;;;;;;;30.80;22.20;;;10.40;99.90;;;;;;5061731;28;20055;-75
2023/02/17 07:38:57;;;;;;;28.52;20.80;;;10.40;99.90;;;;;;5057664;28;20032;-74
2023/02/17 07:41:27;;;;;;;28.98;21.52;;;10.40;99.90;;;;;;5047600;28;20830;-73
2023/02/17 07:43:56;;;;;;;29.55;22.88;;;10.50;99.90;;;;;;5063187;28;20024;-73
2023/02/17 07:46:23;;;;;;;30.85;22.20;;;10.40;99.90;;;;;;5064475;28;21725;-77
2023/02/17 07:48:49;;;;;;;26.55;19.92;;;10.50;99.90;;;;;;5044852;28;20039;-74
2023/02/17 07:51:19;;;;;;;32.85;22.38;;;10.50;99.90;;;;;;5064582;28;20482;-73
2023/02/17 07:53:46;;;;;;;24.83;20.58;;;10.50;99.90;;;;;;5046674;28;20037;-72
2023/02/17 07:56:14;;;;;;;23.45;18.85;;;10.50;99.90;;;;;;5066059;28;20095;-76
2023/02/17 07:58:42;;;;;;;25.23;20.42;;;10.50;99.90;;;;;;5019634;28;20040;-74
2023/02/17 08:01:15;;;;;;;26.52;21.15;;;10.50;99.90;;;;;;5048703;28;20039;-73
2023/02/17 08:03:41;;;;;;;;;;;10.60;99.90;;;;;;5066001;28;21161;-75
2023/02/17 08:06:12;;;;;;;28.48;21.73;;;10.60;99.90;;;;;;5067002;28;19923;-76
2023/02/17 08:14:08;;;;;;;27.88;21.58;;;10.60;99.90;;;;;;5062705;28;20414;-76
2023/02/17 08:16:34;;;;;;;29.35;22.48;;;10.70;99.90;;;;;;5038114;28;20082;-73
2023/02/17 08:19:00;;;;;;;25.23;20.27;;;10.70;99.90;;;;;;5061514;28;20047;-74
2023/02/17 08:21:27;;;;;;;30.58;21.65;;;10.70;99.90;;;;;;5034035;28;20415;-77
2023/02/17 08:23:54;;;;;;;24.42;18.95;;;10.70;99.90;;;;;;5069087;28;20032;-74
2023/02/17 08:26:21;;;;;;;30.08;20.63;;;10.70;99.90;;;;;;5036523;28;20028;-74
2023/02/17 08:28:48;;;;;;;25.60;20.27;;;10.70;99.90;;;;;;5029601;28;20480;-75
2023/02/17 08:31:25;;;;;;;25.85;19.58;;;10.70;99.90;;;;;;5043626;28;20475;-75
2023/02/17 08:33:52;;;;;;;25.80;19.70;;;10.80;99.90;;;;;;5044024;28;20845;-75
2023/02/17 08:36:21;;;;;;;23.42;19.10;;;10.80;99.90;;;;;;5043495;28;20474;-76
2023/02/17 08:38:50;;;;;;;24.05;18.10;;;10.80;99.90;;;;;;5046289;28;20036;-74
2023/02/17 08:41:25;;;;;;;20.20;16.58;;;10.90;99.90;;;;;;5060988;28;20514;-75
2023/02/17 08:43:51;;;;;;;21.50;15.88;;;10.90;99.90;;;;;;5061149;28;20043;-73
2023/02/17 08:46:18;;;;;;;24.13;17.70;;;10.90;99.90;;;;;;5045265;28;20379;-74
2023/02/17 08:48:45;;;;;;;23.15;18.00;;;10.90;99.90;;;;;;5040874;28;20043;-75
2023/02/17 08:51:14;;;;;;;21.90;15.68;;;10.90;99.90;;;;;;5044190;28;20431;-74
2023/02/17 08:53:41;;;;;;;21.27;17.05;;;11.00;99.90;;;;;;5018302;28;20047;-77
2023/02/17 08:56:08;;;;;;;19.75;14.98;;;11.00;99.90;;;;;;5044380;28;20036;-75
2023/02/17 08:58:35;;;;;;;19.30;14.98;;;11.00;99.90;;;;;;5025085;28;20454;-74
2023/02/17 09:01:02;;;;;;;17.95;13.05;;;11.00;99.90;;;;;;5046258;28;20028;-73
2023/02/17 09:03:29;;;;;;;16.55;13.10;;;11.10;99.90;;;;;;5043850;28;20042;-75
2023/02/17 09:05:56;;;;;;;15.45;13.40;;;11.10;99.90;;;;;;5048247;28;20040;-75
2023/02/17 09:08:23;;;;;;;15.13;13.43;;;11.10;99.90;;;;;;5036139;28;20480;-74
2023/02/17 09:10:50;;;;;;;15.15;12.13;;;11.10;99.90;;;;;;5063274;28;20032;-76
2023/02/17 09:13:18;;;;;;;13.48;11.15;;;11.20;99.90;;;;;;5046167;28;20410;-74
2023/02/17 09:15:44;;;;;;;15.43;12.27;;;11.20;99.90;;;;;;5047215;28;20024;-73
2023/02/17 09:18:11;;;;;;;13.50;10.77;;;11.20;99.90;;;;;;5038511;28;20388;-74
2023/02/17 09:20:38;;;;;;;13.48;10.77;;;11.20;99.90;;;;;;5044118;28;20024;-73
2023/02/17 09:23:05;;;;;;;12.63;10.50;;;11.20;99.90;;;;;;5034272;28;20028;-73
2023/02/17 09:25:31;;;;;;;15.45;10.55;;;11.20;99.90;;;;;;5031703;28;20044;-76
2023/02/17 09:27:58;;;;;;;11.07;8.88;;;11.20;99.90;;;;;;5036583;28;20067;-76
2023/02/17 09:30:24;;;;;;;13.30;11.70;;;11.30;99.90;;;;;;5048032;28;20429;-76
2023/02/17 09:32:50;;;;;;;13.98;10.80;;;11.30;99.90;;;;;;5035537;28;20024;-81
2023/02/17 09:35:17;;;;;;;11.07;9.80;;;11.30;99.90;;;;;;5063966;28;20031;-73
2023/02/17 09:37:44;;;;;;;11.50;9.75;;;11.30;99.90;;;;;;5031309;28;20442;-74
2023/02/17 09:40:21;;;;;;;15.30;10.18;;;11.40;99.90;;;;;;5033215;28;20043;-73
2023/02/17 09:42:48;;;;;;;10.43;8.77;;;11.40;99.90;;;;;;5045835;28;20047;-74
2023/02/17 09:45:24;;;;;;;8.85;7.95;;;11.40;99.90;;;;;;5047911;28;20067;-73
2023/02/17 09:48:06;;;;;;;8.15;6.95;;;11.50;99.90;;;;;;5045113;28;20043;-79
2023/02/17 09:50:43;;;;;;;9.27;8.32;;;11.50;99.90;;;;;;5065081;28;20652;-78
2023/02/17 09:53:27;;;;;;;9.90;8.90;;;11.50;99.90;;;;;;5068158;28;20036;-78
2023/02/17 09:55:55;;;;;;;11.65;9.48;;;11.50;99.90;;;;;;5065805;28;20031;-74
2023/02/17 09:58:26;;;;;;;11.00;9.52;;;11.50;99.90;;;;;;5035756;28;20044;-76
2023/02/17 10:00:56;;;;;;;9.63;7.80;;;11.50;99.90;;;;;;5022652;28;20289;-74
2023/02/17 10:03:39;;;;;;;9.52;8.27;;;11.50;99.90;;;;;;5062900;28;20036;-75
2023/02/17 10:06:17;;;;;;;9.55;7.82;;;11.50;99.90;;;;;;5061463;28;20039;-76
2023/02/17 10:09:03;;;;;;;8.18;7.30;;;11.50;99.90;;;;;;5026012;28;20036;-75
2023/02/17 10:11:38;;;;;;;8.65;7.18;;;11.60;99.90;;;;;;5063302;28;20036;-75
2023/02/17 10:14:29;;;;;;;9.90;6.95;;;11.50;99.90;;;;;;5062429;28;20051;-76
2023/02/17 10:17:07;;;;;;;10.75;7.13;;;11.60;99.90;;;;;;5043554;28;20052;-75
2023/02/17 10:19:42;;;;;;;9.43;7.57;;;11.60;99.90;;;;;;5052825;28;20027;-74
2023/02/17 10:22:21;;;;;;;8.25;6.65;;;11.70;99.90;;;;;;5065373;28;20032;-77
2023/02/17 10:24:47;;;;;;;9.13;7.40;;;11.70;99.90;;;;;;5064192;28;20058;-74
2023/02/17 10:27:45;;;;;;;9.45;6.13;;;11.70;99.90;;;;;;5045697;28;20040;-77
2023/02/17 10:30:34;;;;;;;7.90;5.93;;;11.70;99.90;;;;;;5043190;28;20722;-75
2023/02/17 10:33:28;;;;;;;7.75;6.28;;;11.70;99.90;;;;;;5051068;28;20043;-75
2023/02/17 10:36:06;;;;;;;8.07;5.93;;;11.70;99.90;;;;;;5059316;28;20045;-74
2023/02/17 10:38:52;;;;;;;7.28;6.40;;;11.70;99.90;;;;;;5051501;28;20032;-75
2023/02/17 10:41:23;;;;;;;8.32;6.75;;;11.70;99.90;;;;;;5062345;28;20504;-74
2023/02/17 10:43:51;;;;;;;6.30;5.70;;;11.70;99.90;;;;;;5062578;28;20041;-76
2023/02/17 10:46:29;;;;;;;7.18;5.88;;;11.70;99.90;;;;;;5051176;28;20028;-74
2023/02/17 10:48:58;;;;;;;9.15;6.38;;;11.70;99.90;;;;;;5042306;28;20039;-74
2023/02/17 10:51:26;;;;;;;11.35;7.72;;;11.70;99.90;;;;;;5046054;28;20048;-74
2023/02/17 10:54:10;;;;;;;8.55;7.57;;;11.70;99.90;;;;;;5046321;28;20024;-76
2023/02/17 10:56:59;;;;;;;7.93;5.65;;;11.70;99.90;;;;;;5070833;28;20543;-75
2023/02/17 10:59:32;;;;;;;8.73;5.38;;;11.70;99.90;;;;;;5054369;28;20470;-74
2023/02/17 11:02:16;;;;;;;7.75;6.03;;;11.70;99.90;;;;;;5053631;28;20510;-74
2023/02/17 11:04:51;;;;;;;7.45;5.20;;;11.70;99.90;;;;;;5064106;28;20044;-75
2023/02/17 11:07:25;;;;;;;5.88;5.25;;;11.70;99.90;;;;;;5066410;28;20032;-74
2023/02/17 11:10:01;;;;;;;6.22;5.22;;;11.70;99.90;;;;;;5054601;28;20033;-80
2023/02/17 11:12:40;;;;;;;8.48;7.13;;;11.80;99.90;;;;;;5065062;28;20063;-74
2023/02/17 11:15:17;;;;;;;7.97;6.93;;;11.70;99.90;;;;;;5056160;28;20391;-76
2023/02/17 11:17:44;;;;;;;7.43;5.93;;;11.80;99.90;;;;;;5044439;28;20043;-75
2023/02/17 11:20:13;;;;;;;8.95;6.53;;;11.80;99.90;;;;;;5069928;28;20059;-74
2023/02/17 11:22:45;;;;;;;9.20;6.72;;;11.80;99.90;;;;;;5045008;28;20394;-78
2023/02/17 11:25:28;;;;;;;8.63;6.28;;;11.80;99.90;;;;;;5046235;28;20047;-74
2023/02/17 11:27:57;;;;;;;8.88;6.88;;;11.80;99.90;;;;;;5056573;28;20418;-77
2023/02/17 11:30:24;;;;;;;9.60;5.82;;;11.90;99.90;;;;;;5049781;28;20031;-74
2023/02/17 11:32:51;;;;;;;12.55;7.38;;;11.90;99.90;;;;;;5067261;28;20499;-75
2023/02/17 11:35:41;;;;;;;8.13;6.43;;;11.90;99.90;;;;;;5065254;28;20037;-77
2023/02/17 11:38:13;;;;;;;7.65;6.28;;;11.90;99.90;;;;;;5043013;28;20041;-76
2023/02/17 11:40:40;;;;;;;10.98;7.07;;;11.90;99.90;;;;;;5037238;28;20028;-74
2023/02/17 11:43:15;;;;;;;9.63;6.80;;;11.90;99.90;;;;;;5038010;28;20491;-76
2023/02/17 11:45:45;;;;;;;10.80;7.78;;;11.90;99.90;;;;;;5049018;28;20059;-75
2023/02/17 11:48:31;;;;;;;11.60;8.02;;;11.90;99.90;;;;;;5055130;28;20040;-75
2023/02/17 11:51:31;;;;;;;13.48;8.68;;;11.80;99.90;;;;;;5048720;28;20032;-75
2023/02/17 11:54:16;;;;;;;10.40;8.00;;;11.80;99.90;;;;;;5063418;28;20029;-75
2023/02/17 11:57:10;;;;;;;11.93;8.02;;;11.70;99.90;;;;;;5065446;28;20054;-79
2023/02/17 11:59:42;;;;;;;9.63;7.65;;;11.70;99.90;;;;;;5037543;28;20036;-76
2023/02/17 12:02:26;;;;;;;9.48;7.20;;;11.70;99.90;;;;;;5052222;28;20588;-75
2023/02/17 12:05:31;;;;;;;10.80;8.20;;;11.70;99.90;;;;;;5065447;28;21543;-76
2023/02/17 12:08:26;;;;;;;9.07;6.75;;;11.80;99.90;;;;;;5030684;28;20052;-77
2023/02/17 12:11:18;;;;;;;14.05;8.13;;;11.70;99.90;;;;;;5068838;28;20495;-74
2023/02/17 12:14:19;;;;;;;12.40;8.15;;;11.80;99.90;;;;;;5047711;28;20044;-73
2023/02/17 12:17:04;;;;;;;10.05;7.00;;;11.80;99.90;;;;;;5063480;28;20044;-76
2023/02/17 12:19:39;;;;;;;8.95;7.57;;;11.80;99.90;;;;;;5035311;28;20040;-74
2023/02/17 12:22:27;;;;;;;8.70;6.43;;;11.80;99.90;;;;;;5048015;28;20736;-76
2023/02/17 12:25:25;;;;;;;8.77;6.97;;;11.80;99.90;;;;;;5046451;28;20373;-76
2023/02/17 12:28:30;;;;;;;9.00;7.10;;;11.80;99.90;;;;;;5057899;28;20715;-77
2023/02/17 12:31:07;;;;;;;8.50;5.78;;;11.80;99.90;;;;;;5069495;28;20486;-76
2023/02/17 12:33:43;;;;;;;11.98;7.63;;;11.80;99.90;;;;;;5048155;28;20041;-76
2023/02/17 12:36:14;;;;;;;10.98;8.30;;;11.80;99.90;;;;;;5048266;28;20043;-74
2023/02/17 12:38:48;;;;;;;9.50;7.70;;;11.80;99.90;;;;;;5056148;28;20039;-74
2023/02/17 12:41:35;;;;;;;14.38;8.38;;;11.90;99.90;;;;;;5048044;28;20028;-78
2023/02/17 12:44:15;;;;;;;13.60;7.70;;;11.80;99.90;;;;;;5044754;28;20047;-75
2023/02/17 12:46:46;;;;;;;12.23;7.80;;;11.80;99.90;;;;;;5035111;28;20032;-74
2023/02/17 12:49:17;;;;;;;13.65;9.13;;;11.80;99.90;;;;;;5025189;28;20073;-77
2023/02/17 12:51:49;;;;;;;14.38;8.75;;;11.80;99.90;;;;;;5047090;28;20041;-75
2023/02/17 12:54:35;;;;;;;16.15;8.48;;;11.80;99.90;;;;;;5038588;28;20498;-75
2023/02/17 12:57:07;;;;;;;11.85;8.02;;;11.70;99.90;;;;;;5066569;28;20036;-76